createdAt,value
2022-08-23T00:00:45.405Z,18.25
2022-08-23T00:03:34.703Z,18.21
2022-08-23T00:06:26.093Z,18.20
2022-08-23T00:09:17.108Z,18.17
2022-08-23T00:12:18.533Z,18.15
2022-08-23T00:15:07.314Z,18.17
2022-08-23T00:17:55.557Z,18.16
2022-08-23T00:20:42.984Z,18.13
2022-08-23T00:23:30.227Z,18.08
2022-08-23T00:26:17.971Z,18.09
2022-08-23T00:29:05.210Z,18.06
2022-08-23T00:31:52.669Z,18.04
2022-08-23T00:34:41.109Z,18.06
2022-08-23T00:37:32.507Z,18.05
2022-08-23T00:40:20.335Z,18.00
2022-08-23T00:43:30.384Z,17.98
2022-08-23T00:46:49.686Z,17.99
2022-08-23T00:49:37.913Z,17.99
2022-08-23T00:52:37.634Z,18.02
2022-08-23T00:55:25.587Z,18.03
2022-08-23T00:58:15.712Z,18.00
2022-08-23T01:02:08.173Z,17.99
2022-08-23T01:04:59.597Z,17.97
2022-08-23T01:07:54.678Z,17.98
2022-08-23T01:10:48.440Z,17.97
2022-08-23T01:13:47.772Z,17.98
2022-08-23T01:16:45.796Z,17.99
2022-08-23T01:19:44.256Z,18.00
2022-08-23T01:23:02.443Z,18.00
2022-08-23T01:25:51.470Z,18.01
2022-08-23T01:28:41.159Z,18.00
2022-08-23T01:31:35.379Z,18.01
2022-08-23T01:34:27.612Z,18.00
2022-08-23T01:37:14.915Z,17.99
2022-08-23T01:40:02.167Z,18.00
2022-08-23T01:42:50.040Z,17.99
2022-08-23T01:45:39.724Z,17.95
2022-08-23T01:48:27.839Z,17.92
2022-08-23T01:51:18.802Z,17.90
2022-08-23T01:54:06.109Z,17.85
2022-08-23T01:56:53.288Z,17.74
2022-08-23T01:59:40.287Z,17.72
2022-08-23T02:02:28.371Z,17.69
2022-08-23T02:05:17.419Z,17.67
2022-08-23T02:08:27.977Z,17.67
2022-08-23T02:11:19.187Z,17.66
2022-08-23T02:14:12.180Z,17.63
2022-08-23T02:17:25.376Z,17.59
2022-08-23T02:20:12.501Z,17.60
2022-08-23T02:23:00.751Z,17.57
2022-08-23T02:25:48.755Z,17.58
2022-08-23T02:28:35.697Z,17.62
2022-08-23T02:31:23.631Z,17.67
2022-08-23T02:34:14.507Z,17.68
2022-08-23T02:37:02.412Z,17.68
2022-08-23T02:39:49.984Z,17.68
2022-08-23T02:42:37.294Z,17.69
2022-08-23T02:45:27.975Z,17.69
2022-08-23T02:48:15.189Z,17.72
2022-08-23T02:51:11.818Z,17.75
2022-08-23T02:53:59.060Z,17.76
2022-08-23T02:56:47.029Z,17.75
2022-08-23T02:59:34.777Z,17.71
2022-08-23T03:02:21.671Z,17.72
2022-08-23T03:05:10.423Z,17.75
2022-08-23T03:07:57.993Z,17.78
2022-08-23T03:10:47.485Z,17.82
2022-08-23T03:13:35.776Z,17.84
2022-08-23T03:16:24.308Z,17.84
2022-08-23T03:19:11.599Z,17.85
2022-08-23T03:21:59.708Z,17.88
2022-08-23T03:24:46.844Z,17.90
2022-08-23T03:27:38.293Z,17.93
2022-08-23T03:30:33.830Z,17.96
2022-08-23T03:33:21.455Z,17.98
2022-08-23T03:36:13.354Z,18.00
2022-08-23T03:39:01.232Z,18.00
2022-08-23T03:41:48.788Z,18.01
2022-08-23T03:44:36.872Z,18.03
2022-08-23T03:47:23.940Z,18.06
2022-08-23T03:50:12.665Z,18.08
2022-08-23T03:53:00.532Z,18.09
2022-08-23T03:55:47.522Z,18.10
2022-08-23T03:58:36.119Z,18.10
2022-08-23T04:01:28.422Z,18.10
2022-08-23T04:04:16.706Z,18.11
2022-08-23T04:07:22.119Z,18.15
2022-08-23T04:10:15.173Z,18.16
2022-08-23T04:13:03.312Z,18.15
2022-08-23T04:15:50.125Z,18.14
2022-08-23T04:18:37.839Z,18.15
2022-08-23T04:21:25.435Z,18.19
2022-08-23T04:24:12.639Z,18.24
2022-08-23T04:26:59.849Z,18.27
2022-08-23T04:29:47.223Z,18.32
2022-08-23T04:32:34.666Z,18.36
2022-08-23T04:35:24.024Z,18.40
2022-08-23T04:38:24.539Z,18.43
2022-08-23T04:41:33.832Z,18.47
2022-08-23T04:44:21.242Z,18.51
2022-08-23T04:47:09.006Z,18.53
2022-08-23T04:49:55.775Z,18.55
2022-08-23T04:52:42.595Z,18.57
2022-08-23T04:55:29.656Z,18.59
2022-08-23T04:58:24.621Z,18.58
2022-08-23T05:01:16.244Z,18.63
2022-08-23T05:04:05.327Z,18.65
2022-08-23T05:06:52.977Z,18.69
2022-08-23T05:09:41.405Z,18.70
2022-08-23T05:12:29.290Z,18.73
2022-08-23T05:15:16.494Z,18.79
2022-08-23T05:18:06.264Z,18.86
2022-08-23T05:20:53.996Z,18.91
2022-08-23T05:23:40.891Z,18.97
2022-08-23T05:26:34.121Z,19.01
2022-08-23T05:29:21.659Z,19.06
2022-08-23T05:32:10.984Z,19.08
2022-08-23T05:34:58.062Z,19.11
2022-08-23T05:37:44.989Z,19.15
2022-08-23T05:40:32.012Z,19.20
2022-08-23T05:43:29.701Z,19.22
2022-08-23T05:46:21.193Z,19.26
2022-08-23T05:49:36.680Z,19.34
2022-08-23T05:52:23.452Z,19.38
2022-08-23T05:55:10.770Z,19.41
2022-08-23T05:58:00.399Z,19.43
2022-08-23T06:00:48.000Z,19.46
2022-08-23T06:03:35.579Z,19.51
2022-08-23T06:06:22.997Z,19.51
2022-08-23T06:09:22.897Z,19.56
2022-08-23T06:12:10.439Z,19.65
2022-08-23T06:14:58.524Z,19.68
2022-08-23T06:17:47.124Z,19.74
2022-08-23T06:20:34.185Z,19.78
2022-08-23T06:23:24.999Z,19.82
2022-08-23T06:26:14.980Z,19.87
2022-08-23T06:29:08.214Z,19.91
2022-08-23T06:31:56.545Z,19.96
2022-08-23T06:34:48.822Z,20.00
2022-08-23T06:37:41.632Z,20.06
2022-08-23T06:40:45.414Z,20.02
2022-08-23T06:43:48.830Z,20.08
2022-08-23T06:46:42.468Z,20.13
2022-08-23T06:49:29.902Z,20.12
2022-08-23T06:52:18.371Z,20.15
2022-08-23T06:55:13.772Z,20.23
2022-08-23T06:58:21.250Z,20.33
2022-08-23T07:01:45.582Z,20.39
2022-08-23T07:04:44.163Z,20.45
2022-08-23T07:07:49.901Z,20.46
2022-08-23T07:10:36.939Z,20.47
2022-08-23T07:13:23.856Z,20.52
2022-08-23T07:16:11.638Z,20.56
2022-08-23T07:18:59.036Z,20.64
2022-08-23T07:21:48.699Z,20.70
2022-08-23T07:24:36.131Z,20.79
2022-08-23T07:27:24.450Z,20.91
2022-08-23T07:30:18.534Z,20.98
2022-08-23T07:33:07.286Z,21.05
2022-08-23T07:35:57.802Z,21.16
2022-08-23T07:38:46.106Z,21.33
2022-08-23T07:41:35.301Z,21.44
2022-08-23T07:44:24.464Z,21.51
2022-08-23T07:47:15.068Z,21.58
2022-08-23T07:50:02.059Z,21.57
2022-08-23T07:52:51.755Z,21.61
2022-08-23T07:55:40.098Z,21.67
2022-08-23T07:58:42.769Z,21.72
2022-08-23T08:01:48.353Z,21.82
2022-08-23T08:04:36.004Z,21.77
2022-08-23T08:07:23.177Z,21.76
2022-08-23T08:10:16.884Z,21.84
2022-08-23T08:13:03.863Z,21.96
2022-08-23T08:15:51.200Z,22.03
2022-08-23T08:18:39.493Z,22.04
2022-08-23T08:22:05.345Z,22.05
2022-08-23T08:25:18.913Z,22.01
2022-08-23T08:28:07.898Z,22.04
2022-08-23T08:30:57.718Z,22.04
2022-08-23T08:33:44.906Z,21.98
2022-08-23T08:36:42.569Z,21.98
2022-08-23T08:39:34.048Z,21.96
2022-08-23T08:42:45.610Z,22.01
2022-08-23T08:45:58.827Z,22.12
2022-08-23T08:48:50.423Z,22.20
2022-08-23T08:51:51.110Z,22.20
2022-08-23T08:54:42.889Z,22.20
2022-08-23T08:57:40.076Z,22.16
2022-08-23T09:00:32.600Z,22.20
2022-08-23T09:03:22.753Z,22.24
2022-08-23T09:06:26.213Z,22.27
2022-08-23T09:09:28.374Z,22.29
2022-08-23T09:13:03.722Z,22.27
2022-08-23T09:16:15.941Z,22.30
2022-08-23T09:19:04.835Z,22.35
2022-08-23T09:22:14.629Z,22.33
2022-08-23T09:25:02.073Z,22.26
2022-08-23T09:27:57.702Z,22.26
2022-08-23T09:30:55.728Z,22.22
2022-08-23T09:33:49.210Z,22.14
2022-08-23T09:37:20.963Z,22.11
2022-08-23T09:40:34.308Z,22.12
2022-08-23T09:43:27.028Z,22.23
2022-08-23T09:46:26.602Z,22.39
2022-08-23T09:49:23.269Z,22.47
2022-08-23T09:52:37.908Z,22.51
2022-08-23T09:55:28.150Z,22.45
2022-08-23T09:58:32.136Z,22.45
2022-08-23T10:01:26.051Z,22.47
2022-08-23T10:04:46.273Z,22.46
2022-08-23T10:07:42.427Z,22.58
2022-08-23T10:10:52.736Z,22.66
2022-08-23T10:13:46.139Z,22.63
2022-08-23T10:17:00.659Z,22.52
2022-08-23T10:20:30.627Z,22.62
2022-08-23T10:24:04.533Z,22.88
2022-08-23T10:27:27.487Z,23.22
2022-08-23T10:30:34.962Z,23.43
2022-08-23T10:33:38.179Z,23.76
2022-08-23T10:36:46.861Z,23.93
2022-08-23T10:40:04.702Z,24.09
2022-08-23T10:43:20.991Z,24.40
2022-08-23T10:46:09.883Z,24.78
2022-08-23T10:49:00.275Z,25.11
2022-08-23T10:51:51.797Z,25.37
2022-08-23T10:54:49.163Z,25.34
2022-08-23T10:57:42.698Z,25.52
2022-08-23T11:00:32.332Z,25.67
2022-08-23T11:03:35.331Z,25.87
2022-08-23T11:06:28.278Z,26.09
2022-08-23T11:09:19.029Z,26.10
2022-08-23T11:12:23.347Z,26.07
2022-08-23T11:15:48.864Z,26.03
2022-08-23T11:18:36.116Z,26.36
2022-08-23T11:21:28.587Z,26.67
2022-08-23T11:24:41.244Z,26.92
2022-08-23T11:27:43.147Z,26.86
2022-08-23T11:30:34.182Z,26.96
2022-08-23T11:33:42.662Z,27.31
2022-08-23T11:36:33.680Z,27.41
2022-08-23T11:39:25.615Z,27.59
2022-08-23T11:42:19.726Z,27.96
2022-08-23T11:45:28.028Z,27.94
2022-08-23T11:48:43.668Z,28.29
2022-08-23T11:51:52.668Z,28.60
2022-08-23T11:54:52.066Z,28.52
2022-08-23T11:58:04.273Z,28.37
2022-08-23T12:01:06.301Z,27.96
2022-08-23T12:04:02.410Z,27.72
2022-08-23T12:06:55.629Z,27.74
2022-08-23T12:09:42.665Z,27.70
2022-08-23T12:12:38.120Z,27.64
2022-08-23T12:16:06.783Z,27.61
2022-08-23T12:19:09.753Z,27.51
2022-08-23T12:22:09.872Z,27.39
2022-08-23T12:25:07.232Z,27.27
2022-08-23T12:28:32.231Z,27.15
2022-08-23T12:31:32.445Z,27.06
2022-08-23T12:34:32.558Z,27.12
2022-08-23T12:37:45.129Z,27.21
2022-08-23T12:40:43.814Z,27.26
2022-08-23T12:43:31.780Z,27.35
2022-08-23T12:46:33.415Z,27.68
2022-08-23T12:49:31.713Z,27.90
2022-08-23T12:52:25.533Z,28.20
2022-08-23T12:55:16.895Z,28.36
2022-08-23T12:58:05.428Z,28.38
2022-08-23T13:00:56.402Z,28.42
2022-08-23T13:03:46.775Z,28.60
2022-08-23T13:06:49.591Z,28.81
2022-08-23T13:09:40.180Z,29.04
2022-08-23T13:12:28.266Z,29.22
2022-08-23T13:15:46.719Z,29.51
2022-08-23T13:18:38.497Z,29.41
2022-08-23T13:21:25.926Z,29.12
2022-08-23T13:24:37.681Z,28.78
2022-08-23T13:27:38.228Z,28.52
2022-08-23T13:30:29.645Z,28.39
2022-08-23T13:33:21.753Z,28.19
2022-08-23T13:36:16.085Z,28.03
2022-08-23T13:39:06.808Z,28.02
2022-08-23T13:41:55.689Z,27.84
2022-08-23T13:44:44.023Z,27.70
2022-08-23T13:47:31.536Z,27.68
2022-08-23T13:50:28.208Z,27.64
2022-08-23T13:53:15.711Z,27.60
2022-08-23T13:56:03.534Z,27.52
2022-08-23T13:59:00.465Z,27.58
2022-08-23T14:01:47.935Z,27.88
2022-08-23T14:04:35.542Z,27.82
2022-08-23T14:07:22.362Z,27.83
2022-08-23T14:10:09.813Z,28.11
2022-08-23T14:12:57.358Z,28.44
2022-08-23T14:22:01.009Z,28.90
2022-08-23T14:24:48.488Z,28.77
2022-08-23T14:27:36.012Z,28.48
2022-08-23T14:30:32.292Z,28.55
2022-08-23T14:33:21.608Z,28.33
2022-08-23T14:36:09.393Z,28.07
2022-08-23T14:38:57.565Z,27.70
2022-08-23T14:41:47.990Z,27.56
2022-08-23T14:44:37.416Z,27.65
2022-08-23T14:47:27.032Z,27.60
2022-08-23T14:50:14.653Z,27.44
2022-08-23T14:53:04.656Z,27.20
2022-08-23T14:56:12.387Z,27.07
2022-08-23T14:59:01.834Z,27.09
2022-08-23T15:01:50.739Z,27.22
2022-08-23T15:04:38.893Z,27.39
2022-08-23T15:07:25.554Z,27.62
2022-08-23T15:13:32.465Z,27.55
2022-08-23T15:16:22.740Z,27.55
2022-08-23T15:19:09.947Z,27.55
2022-08-23T15:21:58.071Z,27.60
2022-08-23T15:24:45.451Z,27.67
2022-08-23T15:27:32.721Z,27.77
2022-08-23T15:30:20.007Z,27.80
2022-08-23T15:33:08.805Z,27.71
2022-08-23T15:35:58.880Z,27.79
2022-08-23T15:38:49.011Z,27.88
2022-08-23T15:41:36.010Z,27.88
2022-08-23T15:44:25.296Z,27.77
2022-08-23T15:47:21.434Z,27.76
2022-08-23T15:50:08.990Z,27.72
2022-08-23T15:52:55.959Z,27.63
2022-08-23T15:55:44.724Z,27.58
2022-08-23T15:58:31.798Z,27.54
2022-08-23T16:01:21.750Z,27.46
2022-08-23T16:04:11.519Z,27.35
2022-08-23T16:06:58.612Z,27.18
2022-08-23T16:09:45.832Z,27.07
2022-08-23T16:12:33.211Z,26.98
2022-08-23T16:15:20.139Z,26.90
2022-08-23T16:18:08.229Z,26.82
2022-08-23T16:20:55.481Z,26.73
2022-08-23T16:23:43.392Z,26.51
2022-08-23T16:26:35.324Z,26.35
2022-08-23T16:29:22.647Z,26.23
2022-08-23T16:32:09.513Z,26.05
2022-08-23T16:34:56.757Z,25.90
2022-08-23T16:37:43.395Z,25.81
2022-08-23T16:40:30.463Z,25.69
2022-08-23T16:43:17.467Z,25.62
2022-08-23T16:46:05.639Z,25.51
2022-08-23T16:48:52.450Z,25.38
2022-08-23T16:51:40.462Z,25.26
2022-08-23T16:54:29.984Z,25.13
2022-08-23T16:57:18.007Z,25.02
2022-08-23T17:00:07.386Z,24.88
2022-08-23T17:02:54.478Z,24.71
2022-08-23T17:05:41.566Z,24.58
2022-08-23T17:08:28.914Z,24.49
2022-08-23T17:11:19.292Z,24.41
2022-08-23T17:14:06.821Z,24.37
2022-08-23T17:16:54.218Z,24.28
2022-08-23T17:19:41.724Z,24.15
2022-08-23T17:22:28.798Z,24.08
2022-08-23T17:25:17.351Z,23.99
2022-08-23T17:28:05.809Z,23.93
2022-08-23T17:30:52.710Z,23.89
2022-08-23T17:33:40.663Z,23.80
2022-08-23T17:36:57.093Z,23.75
2022-08-23T17:39:43.974Z,23.68
2022-08-23T17:42:32.030Z,23.63
2022-08-23T17:45:19.149Z,23.59
2022-08-23T17:48:06.596Z,23.51
2022-08-23T17:50:53.365Z,23.41
2022-08-23T17:53:40.345Z,23.30
2022-08-23T17:56:28.450Z,23.19
2022-08-23T17:59:15.548Z,23.10
2022-08-23T18:02:02.868Z,23.03
2022-08-23T18:04:50.185Z,22.96
2022-08-23T18:07:37.927Z,22.85
2022-08-23T18:10:25.580Z,22.79
2022-08-23T18:13:12.376Z,22.66
2022-08-23T18:15:59.460Z,22.50
2022-08-23T18:18:46.577Z,22.38
2022-08-23T18:21:37.487Z,22.27
2022-08-23T18:24:24.359Z,22.17
2022-08-23T18:27:29.926Z,22.09
2022-08-23T18:30:17.539Z,22.03
2022-08-23T18:33:06.803Z,21.91
2022-08-23T18:35:53.877Z,21.86
2022-08-23T18:38:44.250Z,21.80
2022-08-23T18:41:31.648Z,21.73
2022-08-23T18:44:19.562Z,21.66
2022-08-23T18:47:07.285Z,21.60
2022-08-23T18:49:54.107Z,21.55
2022-08-23T18:52:41.111Z,21.53
2022-08-23T18:55:28.285Z,21.51
2022-08-23T18:58:14.881Z,21.46
2022-08-23T19:01:06.269Z,21.40
2022-08-23T19:03:55.555Z,21.32
2022-08-23T19:06:42.969Z,21.24
2022-08-23T19:09:30.238Z,21.15
2022-08-23T19:12:17.918Z,21.10
2022-08-23T19:15:05.377Z,21.06
2022-08-23T19:17:57.026Z,21.04
2022-08-23T19:20:44.359Z,21.03
2022-08-23T19:23:31.958Z,21.01
2022-08-23T19:26:22.510Z,20.91
2022-08-23T19:29:10.519Z,20.77
2022-08-23T19:31:58.263Z,20.68
2022-08-23T19:34:45.937Z,20.61
2022-08-23T19:37:33.686Z,20.58
2022-08-23T19:40:21.503Z,20.58
2022-08-23T19:43:09.203Z,20.56
2022-08-23T19:45:56.273Z,20.48
2022-08-23T19:48:47.651Z,20.40
2022-08-23T19:51:35.611Z,20.31
2022-08-23T19:54:23.030Z,20.30
2022-08-23T19:57:13.488Z,20.27
2022-08-23T20:00:06.316Z,20.26
2022-08-23T20:02:54.024Z,20.26
2022-08-23T20:05:42.097Z,20.25
2022-08-23T20:08:30.176Z,20.22
2022-08-23T20:11:16.906Z,20.22
2022-08-23T20:14:05.427Z,20.23
2022-08-23T20:16:54.419Z,20.25
2022-08-23T20:19:42.080Z,20.28
2022-08-23T20:22:47.510Z,20.28
2022-08-23T20:25:35.016Z,20.28
2022-08-23T20:28:26.144Z,20.28
2022-08-23T20:31:25.119Z,20.27
2022-08-23T20:34:12.212Z,20.26
2022-08-23T20:36:59.579Z,20.19
2022-08-23T20:39:47.721Z,20.16
2022-08-23T20:42:34.517Z,20.15
2022-08-23T20:45:21.530Z,20.13
2022-08-23T20:48:11.017Z,20.11
2022-08-23T20:51:00.648Z,20.10
2022-08-23T20:53:47.972Z,20.10
2022-08-23T20:56:35.949Z,20.12
2022-08-23T20:59:23.145Z,20.16
2022-08-23T21:02:10.108Z,20.17
2022-08-23T21:04:57.050Z,20.17
2022-08-23T21:07:44.144Z,20.15
2022-08-23T21:10:31.752Z,20.12
2022-08-23T21:13:18.434Z,20.13
2022-08-23T21:16:05.563Z,20.15
2022-08-23T21:18:54.422Z,20.16
2022-08-23T21:21:43.120Z,20.17
2022-08-23T21:24:29.857Z,20.14
2022-08-23T21:27:16.638Z,20.12
2022-08-23T21:30:08.773Z,20.13
2022-08-23T21:32:55.890Z,20.13
2022-08-23T21:35:43.233Z,20.12
2022-08-23T21:38:31.341Z,20.10
2022-08-23T21:41:37.232Z,20.12
2022-08-23T21:44:25.943Z,20.11
2022-08-23T21:47:13.680Z,20.06
2022-08-23T21:50:00.913Z,19.99
2022-08-23T21:52:56.251Z,19.99
2022-08-23T21:55:44.007Z,20.00
2022-08-23T21:58:33.301Z,20.02
2022-08-23T22:01:20.425Z,20.05
2022-08-23T22:04:10.150Z,20.08
2022-08-23T22:06:59.946Z,20.10
2022-08-23T22:09:47.886Z,20.07
2022-08-23T22:12:34.900Z,20.03
2022-08-23T22:15:21.963Z,20.04
2022-08-23T22:18:09.315Z,20.05
2022-08-23T22:20:58.264Z,20.06
2022-08-23T22:23:45.672Z,20.07
2022-08-23T22:26:33.523Z,20.09
2022-08-23T22:29:20.528Z,20.08
2022-08-23T22:32:08.056Z,19.99
2022-08-23T22:34:55.096Z,19.99
2022-08-23T22:38:03.587Z,20.00
2022-08-23T22:40:52.779Z,20.00
2022-08-23T22:43:39.944Z,19.97
2022-08-23T22:46:29.354Z,19.97
2022-08-23T22:49:16.383Z,19.94
2022-08-23T22:52:03.353Z,19.94
2022-08-23T22:54:50.048Z,19.94
2022-08-23T22:57:38.081Z,19.95
2022-08-23T23:00:25.004Z,19.95
2022-08-23T23:03:12.053Z,19.94
2022-08-23T23:05:59.806Z,19.95
2022-08-23T23:08:47.926Z,19.93
2022-08-23T23:11:35.826Z,19.96
2022-08-23T23:14:23.272Z,19.98
2022-08-23T23:17:10.318Z,19.98
2022-08-23T23:20:15.679Z,19.93
2022-08-23T23:23:02.848Z,19.89
2022-08-23T23:25:50.784Z,19.90
2022-08-23T23:28:37.724Z,19.89
2022-08-23T23:31:24.647Z,19.88
2022-08-23T23:34:12.573Z,19.87
2022-08-23T23:36:59.914Z,19.87
2022-08-23T23:39:47.028Z,19.88
2022-08-23T23:42:35.002Z,19.90
2022-08-23T23:45:22.203Z,19.92
2022-08-23T23:48:09.207Z,19.94
2022-08-23T23:50:56.057Z,19.96
2022-08-23T23:53:43.362Z,19.96
2022-08-23T23:56:31.676Z,19.95
2022-08-23T23:59:19.841Z,19.94
